createdAt,value
2018-11-25T00:03:24.129Z,80.42
2018-11-25T00:03:58.305Z,75.75
2018-11-25T00:04:32.360Z,86.82
2018-11-25T00:05:07.188Z,97.35
2018-11-25T00:05:41.407Z,80.95
2018-11-25T00:07:19.075Z,84.25
2018-11-25T00:07:53.905Z,80.87
2018-11-25T00:08:29.240Z,86.45
2018-11-25T00:09:03.606Z,83.82
2018-11-25T00:09:37.740Z,87.90
2018-11-25T00:10:12.216Z,79.87
2018-11-25T00:10:46.676Z,87.30
2018-11-25T00:11:20.822Z,84.35
2018-11-25T00:11:55.247Z,82.60
2018-11-25T00:12:29.352Z,73.70
2018-11-25T00:13:03.803Z,84.72
2018-11-25T00:13:37.952Z,82.90
2018-11-25T00:14:12.056Z,83.45
2018-11-25T00:14:46.144Z,81.12
2018-11-25T00:15:20.258Z,84.17
2018-11-25T00:15:54.385Z,82.30
2018-11-25T00:16:28.880Z,91.30
2018-11-25T00:17:03.085Z,84.40
2018-11-25T00:17:37.566Z,87.78
2018-11-25T00:18:11.762Z,77.22
2018-11-25T00:18:45.870Z,84.25
2018-11-25T00:19:20.334Z,81.47
2018-11-25T00:19:54.424Z,82.20
2018-11-25T00:20:28.610Z,81.63
2018-11-25T00:21:02.718Z,81.97
2018-11-25T00:21:37.261Z,85.90
2018-11-25T00:22:11.388Z,87.67
2018-11-25T00:22:45.522Z,85.30
2018-11-25T00:23:19.622Z,80.83
2018-11-25T00:23:53.731Z,81.15
2018-11-25T00:24:27.846Z,90.83
2018-11-25T00:25:01.973Z,88.10
2018-11-25T00:25:36.173Z,87.90
2018-11-25T00:26:10.294Z,95.57
2018-11-25T00:26:44.765Z,85.15
2018-11-25T00:27:18.914Z,87.25
2018-11-25T00:27:53.058Z,83.62
2018-11-25T00:28:27.182Z,80.85
2018-11-25T00:29:01.320Z,87.88
2018-11-25T00:29:35.773Z,83.07
2018-11-25T00:30:13.823Z,78.17
2018-11-25T00:30:48.306Z,77.67
2018-11-25T00:31:22.462Z,73.95
2018-11-25T00:31:56.541Z,81.40
2018-11-25T00:32:30.665Z,88.72
2018-11-25T00:33:04.936Z,84.15
2018-11-25T00:33:39.052Z,82.90
2018-11-25T00:34:13.214Z,77.03
2018-11-25T00:34:47.336Z,78.07
2018-11-25T00:35:21.514Z,80.92
2018-11-25T00:35:55.708Z,75.40
2018-11-25T00:36:29.823Z,88.58
2018-11-25T00:37:03.970Z,86.02
2018-11-25T00:37:38.412Z,80.57
2018-11-25T00:38:12.552Z,75.80
2018-11-25T00:38:46.705Z,80.57
2018-11-25T00:39:20.858Z,77.20
2018-11-25T00:39:54.974Z,79.87
2018-11-25T00:40:29.440Z,77.35
2018-11-25T00:41:03.582Z,79.00
2018-11-25T00:41:37.998Z,82.67
2018-11-25T00:42:12.116Z,78.35
2018-11-25T00:42:46.282Z,83.00
2018-11-25T00:43:20.422Z,85.22
2018-11-25T00:43:54.598Z,84.80
2018-11-25T00:44:28.700Z,84.35
2018-11-25T00:45:02.811Z,74.12
2018-11-25T00:45:37.098Z,84.22
2018-11-25T00:46:11.164Z,84.77
2018-11-25T00:46:45.272Z,76.75
2018-11-25T00:47:19.732Z,79.97
2018-11-25T00:47:53.829Z,76.62
2018-11-25T00:48:28.279Z,79.27
2018-11-25T00:49:02.408Z,81.47
2018-11-25T00:49:36.462Z,95.25
2018-11-25T00:50:12.530Z,77.08
2018-11-25T00:50:46.654Z,78.87
2018-11-25T00:51:20.778Z,73.28
2018-11-25T00:51:55.243Z,87.20
2018-11-25T00:52:29.371Z,80.95
2018-11-25T00:53:03.478Z,76.40
2018-11-25T00:53:37.617Z,87.82
2018-11-25T00:54:12.089Z,80.25
2018-11-25T00:54:46.508Z,83.10
2018-11-25T00:55:20.720Z,91.08
2018-11-25T00:55:54.884Z,79.27
2018-11-25T00:56:28.959Z,76.77
2018-11-25T00:57:03.379Z,81.80
2018-11-25T00:57:37.478Z,75.40
2018-11-25T00:58:11.616Z,80.30
2018-11-25T00:58:45.790Z,73.70
2018-11-25T00:59:19.945Z,88.07
2018-11-25T00:59:54.042Z,83.10
2018-11-25T01:00:28.506Z,83.95
2018-11-25T01:01:02.639Z,78.92
2018-11-25T01:01:36.791Z,78.92
2018-11-25T01:02:11.555Z,80.40
2018-11-25T01:02:46.132Z,86.12
2018-11-25T01:03:20.634Z,82.55
2018-11-25T01:03:54.812Z,81.15
2018-11-25T01:04:28.926Z,78.33
2018-11-25T01:05:03.035Z,71.92
2018-11-25T01:05:37.160Z,75.78
2018-11-25T01:06:11.334Z,75.75
2018-11-25T01:06:45.451Z,82.10
2018-11-25T01:07:19.935Z,85.40
2018-11-25T01:07:54.144Z,71.22
2018-11-25T01:08:28.222Z,76.45
2018-11-25T01:09:02.320Z,78.12
2018-11-25T01:09:37.098Z,73.85
2018-11-25T01:10:15.168Z,77.70
2018-11-25T01:10:49.278Z,67.22
2018-11-25T01:11:23.422Z,73.60
2018-11-25T01:11:57.543Z,74.17
2018-11-25T01:12:31.640Z,85.10
2018-11-25T01:13:05.754Z,72.30
2018-11-25T01:13:39.884Z,73.75
2018-11-25T01:14:13.979Z,80.72
2018-11-25T01:14:48.094Z,77.67
2018-11-25T01:15:22.896Z,80.50
2018-11-25T01:15:57.079Z,76.85
2018-11-25T01:16:31.215Z,79.62
2018-11-25T01:17:05.663Z,73.62
2018-11-25T01:17:40.123Z,78.92
2018-11-25T01:18:14.235Z,74.77
2018-11-25T01:18:48.431Z,73.47
2018-11-25T01:19:22.872Z,82.53
2018-11-25T01:19:57.079Z,74.77
2018-11-25T01:20:31.162Z,83.20
2018-11-25T01:21:05.675Z,74.22
2018-11-25T01:21:40.462Z,82.35
2018-11-25T01:22:15.229Z,79.15
2018-11-25T01:22:49.686Z,82.47
2018-11-25T01:23:23.795Z,90.75
2018-11-25T01:23:57.932Z,80.47
2018-11-25T01:24:32.335Z,76.53
2018-11-25T01:25:07.645Z,84.50
2018-11-25T01:25:41.772Z,78.55
2018-11-25T01:26:16.525Z,93.42
2018-11-25T01:26:51.455Z,89.40
2018-11-25T01:27:25.855Z,81.47
2018-11-25T01:27:59.950Z,85.22
2018-11-25T01:28:34.395Z,84.07
2018-11-25T01:29:08.463Z,84.62
2018-11-25T01:29:42.559Z,85.07
2018-11-25T01:30:17.362Z,81.32
2018-11-25T01:30:51.799Z,84.50
2018-11-25T01:31:26.521Z,84.28
2018-11-25T01:32:00.702Z,93.00
2018-11-25T01:32:34.795Z,81.55
2018-11-25T01:33:08.937Z,83.10
2018-11-25T01:33:43.061Z,82.88
2018-11-25T01:34:17.195Z,81.47
2018-11-25T01:34:51.331Z,83.82
2018-11-25T01:35:25.462Z,84.80
2018-11-25T01:35:59.939Z,81.30
2018-11-25T01:36:34.727Z,84.87
2018-11-25T01:37:08.871Z,85.53
2018-11-25T01:37:43.583Z,83.92
2018-11-25T01:38:17.703Z,85.47
2018-11-25T01:38:51.861Z,94.95
2018-11-25T01:39:25.966Z,82.57
2018-11-25T01:40:00.384Z,77.80
2018-11-25T01:40:34.795Z,83.12
2018-11-25T01:41:09.213Z,79.55
2018-11-25T01:41:43.623Z,78.92
2018-11-25T01:42:17.733Z,80.12
2018-11-25T01:42:52.129Z,78.92
2018-11-25T01:43:26.269Z,82.65
2018-11-25T01:44:00.355Z,78.97
2018-11-25T01:44:34.465Z,72.90
2018-11-25T01:45:11.073Z,86.02
2018-11-25T01:46:26.053Z,81.78
2018-11-25T01:47:00.168Z,77.95
2018-11-25T01:47:34.904Z,76.77
2018-11-25T01:48:08.981Z,77.20
2018-11-25T01:48:43.097Z,80.95
2018-11-25T01:49:17.183Z,80.28
2018-11-25T01:49:51.285Z,78.60
2018-11-25T01:50:25.397Z,78.17
2018-11-25T01:50:59.815Z,84.75
2018-11-25T01:51:34.577Z,71.47
2018-11-25T01:52:08.713Z,80.70
2018-11-25T01:52:43.495Z,80.87
2018-11-25T01:53:17.597Z,78.95
2018-11-25T01:53:51.722Z,78.28
2018-11-25T01:54:25.861Z,78.47
2018-11-25T01:54:59.999Z,74.72
2018-11-25T01:55:34.160Z,77.10
2018-11-25T01:56:08.260Z,74.62
2018-11-25T01:56:42.363Z,90.10
2018-11-25T01:57:16.494Z,81.00
2018-11-25T01:57:50.959Z,76.60
2018-11-25T01:58:25.075Z,77.78
2018-11-25T01:59:00.595Z,74.92
2018-11-25T01:59:33.375Z,75.55
2018-11-25T02:00:16.212Z,75.42
2018-11-25T02:00:50.675Z,85.95
2018-11-25T02:01:24.781Z,71.47
2018-11-25T02:01:59.025Z,77.75
2018-11-25T02:02:33.153Z,78.40
2018-11-25T02:03:07.606Z,88.10
2018-11-25T02:03:41.709Z,78.15
2018-11-25T02:04:15.825Z,79.70
2018-11-25T02:04:49.928Z,81.53
2018-11-25T02:05:24.011Z,75.55
2018-11-25T02:05:58.223Z,74.03
2018-11-25T02:06:33.013Z,79.65
2018-11-25T02:07:07.424Z,73.60
2018-11-25T02:07:41.540Z,80.87
2018-11-25T02:08:15.971Z,83.20
2018-11-25T02:08:50.048Z,80.70
2018-11-25T02:09:24.126Z,75.87
2018-11-25T02:09:58.293Z,80.00
2018-11-25T02:10:32.727Z,77.55
2018-11-25T02:11:07.173Z,81.47
2018-11-25T02:11:41.309Z,82.05
2018-11-25T02:12:15.398Z,77.42
2018-11-25T02:12:49.544Z,70.25
2018-11-25T02:13:23.623Z,79.45
2018-11-25T02:13:58.013Z,76.85
2018-11-25T02:14:32.118Z,84.35
2018-11-25T02:15:08.014Z,79.92
2018-11-25T02:15:42.429Z,78.83
2018-11-25T02:16:16.556Z,83.90
2018-11-25T02:16:50.691Z,89.07
2018-11-25T02:17:25.137Z,74.53
2018-11-25T02:17:59.859Z,77.95
2018-11-25T02:18:33.979Z,80.80
2018-11-25T02:19:08.391Z,77.65
2018-11-25T02:19:42.853Z,80.53
2018-11-25T02:20:21.383Z,76.12
2018-11-25T02:20:57.013Z,82.47
2018-11-25T02:21:31.094Z,77.92
2018-11-25T02:22:05.805Z,71.12
2018-11-25T02:22:40.261Z,73.50
2018-11-25T02:23:14.687Z,72.75
2018-11-25T02:23:48.794Z,76.28
2018-11-25T02:24:22.893Z,76.50
2018-11-25T02:24:57.099Z,78.05
2018-11-25T02:25:31.189Z,73.67
2018-11-25T02:26:05.322Z,78.00
2018-11-25T02:26:39.417Z,68.37
2018-11-25T02:27:13.865Z,74.67
2018-11-25T02:27:48.271Z,74.40
2018-11-25T02:28:22.713Z,74.53
2018-11-25T02:28:56.788Z,79.50
2018-11-25T02:29:31.290Z,76.53
2018-11-25T02:30:07.897Z,78.07
2018-11-25T02:30:42.029Z,72.67
2018-11-25T02:31:16.083Z,84.25
2018-11-25T02:31:50.498Z,70.57
2018-11-25T02:32:24.616Z,76.10
2018-11-25T02:32:58.815Z,78.33
2018-11-25T02:33:33.251Z,67.30
2018-11-25T02:34:08.035Z,71.37
2018-11-25T02:34:42.177Z,77.60
2018-11-25T02:35:17.241Z,77.53
2018-11-25T02:35:51.337Z,67.30
2018-11-25T02:36:25.411Z,83.07
2018-11-25T02:36:59.854Z,70.12
2018-11-25T02:37:33.947Z,69.25
2018-11-25T02:38:08.748Z,76.20
2018-11-25T02:38:42.959Z,76.82
2018-11-25T02:39:17.065Z,69.87
2018-11-25T02:39:51.153Z,70.83
2018-11-25T02:40:25.324Z,74.67
2018-11-25T02:40:59.484Z,79.15
2018-11-25T02:41:33.933Z,69.15
2018-11-25T02:42:08.061Z,70.15
2018-11-25T02:42:42.165Z,65.83
2018-11-25T02:43:16.285Z,67.27
2018-11-25T02:43:50.370Z,73.57
2018-11-25T02:44:24.842Z,72.00
2018-11-25T02:44:59.570Z,69.15
2018-11-25T02:45:34.053Z,78.33
2018-11-25T02:46:08.191Z,73.75
2018-11-25T02:46:42.307Z,73.35
2018-11-25T02:47:16.428Z,79.25
2018-11-25T02:47:50.529Z,77.10
2018-11-25T02:48:24.641Z,72.60
2018-11-25T02:48:58.816Z,67.37
2018-11-25T02:49:32.929Z,77.10
2018-11-25T02:50:31.938Z,76.47
2018-11-25T02:51:06.228Z,79.32
2018-11-25T02:51:40.687Z,79.72
2018-11-25T02:52:14.759Z,78.05
2018-11-25T02:52:48.863Z,78.55
2018-11-25T02:53:22.987Z,70.00
2018-11-25T02:53:57.082Z,73.80
2018-11-25T02:54:31.218Z,75.95
2018-11-25T02:55:06.052Z,79.15
2018-11-25T02:55:40.165Z,73.90
2018-11-25T02:56:14.287Z,75.42
2018-11-25T02:56:48.417Z,71.22
2018-11-25T02:57:24.750Z,69.07
2018-11-25T02:58:00.775Z,82.45
2018-11-25T02:58:33.480Z,62.67
2018-11-25T02:59:07.589Z,69.95
2018-11-25T02:59:41.725Z,71.97
2018-11-25T03:00:15.851Z,72.92
2018-11-25T03:00:49.998Z,72.42
2018-11-25T03:01:24.441Z,79.03
2018-11-25T03:01:58.576Z,61.83
2018-11-25T03:02:32.673Z,71.65
2018-11-25T03:03:06.785Z,78.47
2018-11-25T03:03:40.902Z,75.78
2018-11-25T03:04:14.996Z,68.12
2018-11-25T03:04:49.173Z,72.08
2018-11-25T03:05:23.601Z,75.25
2018-11-25T03:05:57.702Z,77.10
2018-11-25T03:06:32.151Z,66.07
2018-11-25T03:07:06.606Z,69.65
2018-11-25T03:07:40.714Z,71.87
2018-11-25T03:08:14.846Z,73.37
2018-11-25T03:08:48.957Z,69.80
2018-11-25T03:09:23.056Z,62.03
2018-11-25T03:09:57.538Z,74.32
2018-11-25T03:10:31.973Z,72.32
2018-11-25T03:11:06.451Z,71.17
2018-11-25T03:11:40.584Z,69.15
2018-11-25T03:12:15.149Z,62.35
2018-11-25T03:12:49.280Z,64.07
2018-11-25T03:13:23.418Z,66.53
2018-11-25T03:13:57.883Z,62.58
2018-11-25T03:14:31.998Z,66.70
2018-11-25T03:15:08.529Z,68.75
2018-11-25T03:15:42.994Z,71.40
2018-11-25T03:16:17.137Z,75.17
2018-11-25T03:16:51.289Z,66.40
2018-11-25T03:17:25.394Z,66.90
2018-11-25T03:17:59.514Z,66.75
2018-11-25T03:18:34.003Z,69.27
2018-11-25T03:19:08.158Z,69.32
2018-11-25T03:19:42.278Z,74.82
2018-11-25T03:20:17.171Z,66.28
2018-11-25T03:20:51.302Z,60.25
2018-11-25T03:21:25.393Z,68.80
2018-11-25T03:21:59.487Z,67.20
2018-11-25T03:22:33.592Z,74.60
2018-11-25T03:23:08.054Z,75.60
2018-11-25T03:23:42.234Z,69.30
2018-11-25T03:24:16.362Z,67.08
2018-11-25T03:24:50.498Z,70.75
2018-11-25T03:25:24.994Z,62.45
2018-11-25T03:25:59.223Z,62.93
2018-11-25T03:26:33.341Z,61.53
2018-11-25T03:27:07.774Z,65.50
2018-11-25T03:27:41.880Z,69.53
2018-11-25T03:28:16.019Z,69.55
2018-11-25T03:28:50.116Z,67.03
2018-11-25T03:29:24.255Z,62.05
2018-11-25T03:29:59.246Z,59.00
2018-11-25T03:30:33.383Z,63.73
2018-11-25T03:31:07.473Z,69.67
2018-11-25T03:31:41.586Z,68.30
2018-11-25T03:32:15.766Z,68.28
2018-11-25T03:32:50.954Z,71.97
2018-11-25T03:33:25.403Z,75.32
2018-11-25T03:33:59.530Z,58.00
2018-11-25T03:34:33.585Z,62.75
2018-11-25T03:35:09.010Z,65.35
2018-11-25T03:35:43.122Z,65.97
2018-11-25T03:36:17.208Z,61.83
2018-11-25T03:36:51.324Z,64.97
2018-11-25T03:37:25.807Z,61.18
2018-11-25T03:37:59.914Z,63.75
2018-11-25T03:38:34.053Z,67.95
2018-11-25T03:39:08.164Z,70.47
2018-11-25T03:39:42.268Z,63.42
2018-11-25T03:40:17.096Z,62.43
2018-11-25T03:40:51.174Z,69.10
2018-11-25T03:41:26.194Z,65.78
2018-11-25T03:42:00.626Z,65.55
2018-11-25T03:42:34.851Z,63.13
2018-11-25T03:43:10.136Z,60.35
2018-11-25T03:43:44.288Z,66.87
2018-11-25T03:44:19.064Z,65.40
2018-11-25T03:44:53.509Z,60.30
2018-11-25T03:45:27.949Z,61.15
2018-11-25T03:46:02.098Z,61.45
2018-11-25T03:46:36.518Z,67.20
2018-11-25T03:47:10.968Z,62.70
2018-11-25T03:47:45.397Z,62.83
2018-11-25T03:48:19.497Z,58.73
2018-11-25T03:48:53.631Z,65.72
2018-11-25T03:49:28.042Z,63.08
2018-11-25T03:50:02.174Z,64.80
2018-11-25T03:50:36.606Z,61.55
2018-11-25T03:51:10.710Z,63.35
2018-11-25T03:51:44.807Z,65.57
2018-11-25T03:52:19.146Z,55.35
2018-11-25T03:52:53.259Z,60.58
2018-11-25T03:53:27.741Z,63.20
2018-11-25T03:54:01.908Z,61.48
2018-11-25T03:54:36.110Z,61.83
2018-11-25T03:55:11.284Z,62.33
2018-11-25T03:55:45.744Z,64.17
2018-11-25T03:56:20.159Z,63.55
2018-11-25T03:56:54.265Z,59.58
2018-11-25T03:57:28.714Z,65.80
2018-11-25T03:58:03.124Z,51.00
2018-11-25T03:58:37.591Z,55.60
2018-11-25T03:59:12.055Z,55.60
2018-11-25T03:59:46.240Z,63.05
2018-11-25T04:00:24.320Z,57.00
2018-11-25T04:00:58.486Z,56.10
2018-11-25T04:01:32.590Z,54.95
2018-11-25T04:02:07.041Z,57.08
2018-11-25T04:02:41.469Z,53.00
2018-11-25T04:03:15.591Z,56.10
2018-11-25T04:03:49.670Z,63.95
2018-11-25T04:04:23.807Z,54.42
2018-11-25T04:04:57.926Z,62.55
2018-11-25T04:05:32.042Z,58.17
2018-11-25T04:06:06.826Z,59.48
2018-11-25T04:06:40.968Z,61.58
2018-11-25T04:07:15.052Z,55.00
2018-11-25T04:07:49.152Z,55.55
2018-11-25T04:08:23.259Z,55.98
2018-11-25T04:08:57.439Z,55.65
2018-11-25T04:09:31.622Z,58.50
2018-11-25T04:10:07.886Z,54.10
2018-11-25T04:10:41.962Z,56.80
2018-11-25T04:11:16.715Z,53.02
2018-11-25T04:11:50.823Z,53.38
2018-11-25T04:12:24.902Z,59.25
2018-11-25T04:12:59.024Z,56.33
2018-11-25T04:13:33.100Z,60.43
2018-11-25T04:14:07.866Z,60.43
2018-11-25T04:14:42.402Z,61.92
2018-11-25T04:15:17.257Z,57.55
2018-11-25T04:15:51.658Z,60.80
2018-11-25T04:16:25.743Z,57.08
2018-11-25T04:16:59.822Z,61.50
2018-11-25T04:17:33.908Z,57.10
2018-11-25T04:18:07.982Z,59.55
2018-11-25T04:18:42.078Z,57.70
2018-11-25T04:19:16.516Z,58.80
2018-11-25T04:19:50.959Z,61.63
2018-11-25T04:20:25.376Z,56.23
2018-11-25T04:20:59.502Z,63.83
2018-11-25T04:21:33.952Z,59.80
2018-11-25T04:22:08.096Z,62.05
2018-11-25T04:22:42.862Z,56.35
2018-11-25T04:23:16.963Z,54.90
2018-11-25T04:23:51.065Z,58.63
2018-11-25T04:24:25.163Z,61.83
2018-11-25T04:24:59.628Z,56.00
2018-11-25T04:25:33.731Z,53.98
2018-11-25T04:26:07.892Z,58.00
2018-11-25T04:26:42.114Z,52.35
2018-11-25T04:27:16.206Z,55.58
2018-11-25T04:27:50.774Z,60.60
2018-11-25T04:28:24.922Z,54.33
2018-11-25T04:28:59.953Z,52.17
2018-11-25T04:29:34.338Z,61.70
2018-11-25T04:30:10.626Z,50.88
2018-11-25T04:30:44.769Z,54.90
2018-11-25T04:31:19.206Z,55.08
2018-11-25T04:31:53.497Z,56.00
2018-11-25T04:32:27.594Z,50.33
2018-11-25T04:33:01.678Z,50.00
2018-11-25T04:33:35.819Z,55.35
2018-11-25T04:34:09.970Z,54.55
2018-11-25T04:34:44.058Z,54.67
2018-11-25T04:35:18.516Z,53.45
2018-11-25T04:35:52.614Z,59.55
2018-11-25T04:36:26.769Z,57.93
2018-11-25T04:37:00.833Z,55.85
2018-11-25T04:37:34.932Z,56.35
2018-11-25T04:38:09.016Z,49.35
2018-11-25T04:38:43.462Z,51.45
2018-11-25T04:39:17.546Z,52.08
2018-11-25T04:39:51.622Z,51.00
2018-11-25T04:40:25.806Z,59.65
2018-11-25T04:40:59.926Z,48.75
2018-11-25T04:41:34.002Z,51.10
2018-11-25T04:42:08.104Z,48.98
2018-11-25T04:42:42.182Z,50.03
2018-11-25T04:43:16.282Z,51.18
2018-11-25T04:43:50.711Z,49.25
2018-11-25T04:44:25.159Z,49.48
2018-11-25T04:44:59.544Z,59.42
2018-11-25T04:45:35.436Z,50.33
2018-11-25T04:46:09.526Z,47.13
2018-11-25T04:46:43.917Z,55.17
2018-11-25T04:47:18.378Z,50.80
2018-11-25T04:47:52.523Z,49.18
2018-11-25T04:48:26.660Z,50.75
2018-11-25T04:49:01.167Z,51.68
2018-11-25T04:49:35.306Z,50.95
2018-11-25T04:50:24.184Z,55.73
2018-11-25T04:50:58.410Z,53.68
2018-11-25T04:51:32.877Z,45.35
2018-11-25T04:52:06.942Z,51.02
2018-11-25T04:52:41.739Z,51.90
2018-11-25T04:53:16.144Z,54.00
2018-11-25T04:53:50.242Z,55.78
2018-11-25T04:54:24.485Z,54.03
2018-11-25T04:54:58.974Z,50.17
2018-11-25T04:55:33.400Z,50.43
2018-11-25T04:56:07.858Z,46.15
2018-11-25T04:56:41.974Z,49.67
2018-11-25T04:57:16.068Z,48.98
2018-11-25T04:57:52.899Z,53.65
2018-11-25T04:58:26.988Z,53.13
2018-11-25T04:59:01.430Z,55.40
2018-11-25T04:59:35.520Z,43.08
2018-11-25T05:00:12.218Z,44.77
2018-11-25T05:00:46.348Z,49.35
2018-11-25T05:01:20.475Z,46.53
2018-11-25T05:01:55.146Z,47.30
2018-11-25T05:02:29.959Z,47.62
2018-11-25T05:03:04.118Z,49.45
2018-11-25T05:03:38.190Z,46.28
2018-11-25T05:04:12.314Z,49.00
2018-11-25T05:04:46.422Z,54.05
2018-11-25T05:05:20.966Z,54.10
2018-11-25T05:05:55.618Z,53.83
2018-11-25T05:06:29.715Z,51.28
2018-11-25T05:07:04.165Z,49.42
2018-11-25T05:07:38.624Z,51.80
2018-11-25T05:08:12.857Z,47.95
2018-11-25T05:08:47.265Z,58.25
2018-11-25T05:09:21.363Z,48.78
2018-11-25T05:09:55.494Z,49.60
2018-11-25T05:10:30.049Z,48.15
2018-11-25T05:11:04.146Z,49.98
2018-11-25T05:11:38.298Z,53.65
2018-11-25T05:12:12.737Z,50.08
2018-11-25T05:12:47.158Z,52.25
2018-11-25T05:13:21.289Z,43.73
2018-11-25T05:13:55.716Z,47.48
2018-11-25T05:14:36.500Z,51.70
2018-11-25T05:15:19.766Z,51.02
2018-11-25T05:15:53.871Z,46.50
2018-11-25T05:16:27.979Z,51.45
2018-11-25T05:17:02.113Z,50.80
2018-11-25T05:17:36.246Z,49.93
2018-11-25T05:18:10.502Z,52.10
2018-11-25T05:18:45.182Z,45.95
2018-11-25T05:19:19.441Z,48.85
2018-11-25T05:19:53.682Z,43.02
2018-11-25T05:20:28.782Z,46.37
2018-11-25T05:21:03.270Z,50.35
2018-11-25T05:21:37.442Z,46.08
2018-11-25T05:22:11.561Z,50.03
2018-11-25T05:22:45.665Z,51.70
2018-11-25T05:23:19.795Z,47.70
2018-11-25T05:23:54.178Z,50.45
2018-11-25T05:24:28.376Z,50.08
2018-11-25T05:25:02.847Z,54.65
2018-11-25T05:25:37.024Z,57.25
2018-11-25T05:26:11.161Z,46.98
2018-11-25T05:26:45.298Z,51.70
2018-11-25T05:27:19.790Z,47.65
2018-11-25T05:27:54.084Z,53.83
2018-11-25T05:28:28.218Z,56.70
2018-11-25T05:29:02.331Z,52.67
2018-11-25T05:29:36.662Z,54.13
2018-11-25T05:30:14.617Z,53.58
2018-11-25T05:30:48.748Z,55.25
2018-11-25T05:31:23.194Z,49.40
2018-11-25T05:31:57.326Z,54.73
2018-11-25T05:32:31.413Z,51.88
2018-11-25T05:33:05.900Z,52.62
2018-11-25T05:33:40.043Z,57.67
2018-11-25T05:34:14.368Z,61.88
2018-11-25T05:34:48.512Z,57.10
2018-11-25T05:35:22.650Z,60.58
2018-11-25T05:35:56.822Z,57.40
2018-11-25T05:36:30.954Z,56.02
2018-11-25T05:37:05.398Z,51.53
2018-11-25T05:37:39.483Z,62.75
2018-11-25T05:38:13.578Z,64.87
2018-11-25T05:38:47.713Z,68.57
2018-11-25T05:39:22.406Z,58.75
2018-11-25T05:39:56.560Z,55.23
2018-11-25T05:40:31.043Z,59.67
2018-11-25T05:41:05.581Z,53.42
2018-11-25T05:41:39.694Z,58.87
2018-11-25T05:42:14.150Z,62.98
2018-11-25T05:42:48.286Z,60.92
2018-11-25T05:43:22.546Z,61.58
2018-11-25T05:43:56.845Z,62.53
2018-11-25T05:44:30.944Z,55.43
2018-11-25T05:45:07.242Z,52.33
2018-11-25T05:45:41.332Z,51.77
2018-11-25T05:46:15.443Z,56.42
2018-11-25T05:46:49.546Z,52.20
2018-11-25T05:47:23.642Z,55.92
2018-11-25T05:47:57.734Z,50.05
2018-11-25T05:48:31.816Z,61.37
2018-11-25T05:49:06.818Z,54.23
2018-11-25T05:49:40.894Z,51.98
2018-11-25T05:50:17.186Z,50.08
2018-11-25T05:50:51.276Z,52.50
2018-11-25T05:51:25.371Z,54.23
2018-11-25T05:51:59.507Z,52.70
2018-11-25T05:52:33.573Z,52.23
2018-11-25T05:53:07.972Z,57.62
2018-11-25T05:53:42.079Z,58.33
2018-11-25T05:54:16.226Z,56.25
2018-11-25T05:54:50.302Z,51.83
2018-11-25T05:55:24.412Z,54.13
2018-11-25T05:55:58.603Z,52.53
2018-11-25T05:56:32.746Z,53.75
2018-11-25T05:57:07.057Z,51.20
2018-11-25T05:57:41.346Z,54.23
2018-11-25T05:58:15.475Z,56.80
2018-11-25T05:58:49.674Z,61.75
2018-11-25T05:59:23.785Z,60.15
2018-11-25T05:59:58.202Z,57.98
2018-11-25T06:00:33.076Z,56.68
2018-11-25T06:01:07.510Z,57.55
2018-11-25T06:01:41.653Z,62.08
2018-11-25T06:02:15.773Z,57.83
2018-11-25T06:02:49.886Z,63.13
2018-11-25T06:03:24.004Z,61.95
2018-11-25T06:03:58.204Z,58.42
2018-11-25T06:04:32.334Z,62.13
2018-11-25T06:05:06.495Z,59.15
2018-11-25T06:05:40.570Z,60.10
2018-11-25T06:06:14.741Z,59.63
2018-11-25T06:06:49.230Z,65.70
2018-11-25T06:07:23.364Z,60.15
2018-11-25T06:07:57.850Z,68.52
2018-11-25T06:08:31.921Z,61.35
2018-11-25T06:09:08.006Z,64.25
2018-11-25T06:09:42.187Z,65.25
2018-11-25T06:10:16.286Z,63.92
2018-11-25T06:10:50.730Z,70.45
2018-11-25T06:11:24.846Z,70.78
2018-11-25T06:11:59.051Z,70.57
2018-11-25T06:12:33.155Z,66.77
2018-11-25T06:13:07.278Z,66.72
2018-11-25T06:13:41.394Z,67.10
2018-11-25T06:14:15.564Z,64.07
2018-11-25T06:14:49.666Z,69.67
2018-11-25T06:15:23.810Z,66.62
2018-11-25T06:15:58.370Z,70.28
2018-11-25T06:16:33.174Z,68.15
2018-11-25T06:17:07.309Z,69.58
2018-11-25T06:17:41.504Z,66.50
2018-11-25T06:18:15.623Z,73.35
2018-11-25T06:18:49.751Z,73.17
2018-11-25T06:19:23.900Z,68.50
2018-11-25T06:19:58.809Z,67.32
2018-11-25T06:20:32.898Z,63.63
2018-11-25T06:21:07.065Z,67.70
2018-11-25T06:21:41.162Z,75.72
2018-11-25T06:22:15.615Z,66.17
2018-11-25T06:22:50.090Z,69.10
2018-11-25T06:23:24.195Z,66.07
2018-11-25T06:23:58.388Z,74.27
2018-11-25T06:24:32.457Z,61.58
2018-11-25T06:25:08.149Z,67.00
2018-11-25T06:25:42.281Z,71.75
2018-11-25T06:26:16.397Z,70.50
2018-11-25T06:26:50.499Z,69.00
2018-11-25T06:27:25.037Z,67.35
2018-11-25T06:27:59.314Z,69.27
2018-11-25T06:28:33.912Z,68.60
2018-11-25T06:29:08.001Z,67.60
2018-11-25T06:29:42.079Z,66.15
2018-11-25T06:30:18.760Z,74.05
2018-11-25T06:30:52.912Z,64.85
2018-11-25T06:31:28.074Z,70.20
2018-11-25T06:32:01.204Z,69.27
2018-11-25T06:32:35.342Z,71.12
2018-11-25T06:33:09.444Z,67.55
2018-11-25T06:33:43.594Z,69.37
2018-11-25T06:34:17.716Z,63.83
2018-11-25T06:34:52.117Z,69.60
2018-11-25T06:35:26.216Z,70.75
2018-11-25T06:36:00.370Z,73.25
2018-11-25T06:36:34.480Z,72.85
2018-11-25T06:37:09.130Z,70.80
2018-11-25T06:37:43.224Z,69.22
2018-11-25T06:38:17.302Z,70.25
2018-11-25T06:38:51.759Z,69.03
2018-11-25T06:39:25.862Z,68.50
2018-11-25T06:40:00.301Z,74.03
2018-11-25T06:40:34.562Z,71.77
2018-11-25T06:41:08.991Z,70.10
2018-11-25T06:41:43.117Z,68.65
2018-11-25T06:42:17.282Z,66.30
2018-11-25T06:42:51.375Z,74.35
2018-11-25T06:43:25.518Z,67.95
2018-11-25T06:43:59.667Z,69.67
2018-11-25T06:44:34.458Z,68.15
2018-11-25T06:45:12.790Z,71.82
2018-11-25T06:45:47.222Z,68.78
2018-11-25T06:46:21.318Z,62.50
2018-11-25T06:46:55.387Z,66.82
2018-11-25T06:47:29.524Z,68.85
2018-11-25T06:48:03.597Z,62.80
2018-11-25T06:48:38.010Z,72.47
2018-11-25T06:49:12.108Z,68.17
2018-11-25T06:49:46.203Z,71.53
2018-11-25T06:50:20.397Z,74.58
2018-11-25T06:50:55.556Z,67.55
2018-11-25T06:51:29.673Z,62.25
2018-11-25T06:52:03.939Z,62.62
2018-11-25T06:52:38.125Z,65.05
2018-11-25T06:53:12.525Z,67.50
2018-11-25T06:53:46.670Z,70.72
2018-11-25T06:54:20.927Z,79.32
2018-11-25T06:54:55.011Z,68.80
2018-11-25T06:55:29.454Z,60.38
2018-11-25T06:56:03.911Z,62.08
2018-11-25T06:56:38.014Z,72.78
2018-11-25T06:57:12.143Z,67.05
2018-11-25T06:57:46.293Z,74.80
2018-11-25T06:58:20.445Z,69.25
2018-11-25T06:58:54.531Z,70.12
2018-11-25T06:59:28.632Z,70.50
2018-11-25T07:00:03.088Z,71.92
2018-11-25T07:00:37.515Z,77.58
2018-11-25T07:01:11.951Z,72.20
2018-11-25T07:01:46.040Z,67.45
2018-11-25T07:02:20.151Z,65.30
2018-11-25T07:02:54.466Z,65.25
2018-11-25T07:03:28.863Z,64.07
2018-11-25T07:04:03.075Z,67.12
2018-11-25T07:04:37.213Z,70.87
2018-11-25T07:05:11.379Z,68.52
2018-11-25T07:05:45.604Z,66.35
2018-11-25T07:06:19.695Z,72.22
2018-11-25T07:06:54.191Z,73.22
2018-11-25T07:07:28.453Z,71.72
2018-11-25T07:08:03.075Z,74.20
2018-11-25T07:08:37.197Z,74.12
2018-11-25T07:09:11.421Z,77.80
2018-11-25T07:09:45.687Z,67.22
2018-11-25T07:10:21.998Z,64.87
2018-11-25T07:10:56.164Z,69.82
2018-11-25T07:11:30.691Z,71.60
2018-11-25T07:12:05.349Z,70.22
2018-11-25T07:12:39.829Z,78.92
2018-11-25T07:13:14.051Z,73.33
2018-11-25T07:13:48.567Z,65.85
2018-11-25T07:14:22.724Z,66.35
2018-11-25T07:14:57.174Z,73.28
2018-11-25T07:15:31.237Z,64.47
2018-11-25T07:16:06.552Z,70.12
2018-11-25T07:16:40.453Z,74.95
2018-11-25T07:17:14.549Z,74.27
2018-11-25T07:17:49.064Z,67.55
2018-11-25T07:18:23.157Z,69.58
2018-11-25T07:18:57.261Z,70.92
2018-11-25T07:19:31.402Z,65.12
2018-11-25T07:20:06.481Z,72.17
2018-11-25T07:20:40.930Z,69.90
2018-11-25T07:21:15.005Z,67.60
2018-11-25T07:21:49.443Z,64.97
2018-11-25T07:22:23.553Z,73.10
2018-11-25T07:22:57.659Z,72.58
2018-11-25T07:23:31.784Z,72.75
2018-11-25T07:24:06.191Z,72.27
2018-11-25T07:24:40.625Z,70.40
2018-11-25T07:25:23.200Z,69.97
2018-11-25T07:25:57.290Z,70.20
2018-11-25T07:26:31.419Z,60.67
2018-11-25T07:27:06.227Z,66.17
2018-11-25T07:27:40.369Z,65.25
2018-11-25T07:28:18.256Z,71.53